Casper, WY

10:47 PM MDT on July 29, 2016 (GMT -0600)
ARS - W7BLM, Casper Wy. | | Change Station

Elev 5186 ft 42.83 °N, 106.35 °W | Updated 8 seconds ago

Clear
Clear
68.7 °F
Feels Like 68.7 °F
N
1.3
Wind Variable Wind from West
Gusts 2.5 mph

Today
High -- | Low -- °F
--% Chance of Precip.
Yesterday
High -- | Low -- °F
Precip. -- in
Pressure 29.90 in
Visibility 10.0 miles
Clouds Clear
Dew Point 52 °F
Humidity 55%
Rainfall 0.07 in
Snow Depth Not available.
5:54 AM 8:28 PM
Waning Crescent, 16% visible
METAR KCPR 300353Z AUTO 03006KT 10SM CLR 19/12 A3010 RMK AO2 SLP125 T01890117
Pressure 29.90 in
Visibility 10.0 miles
Clouds Clear
Dew Point 52 °F
Humidity 55%
Rainfall 0.07 in
Snow Depth Not available.
5:54 AM 8:28 PM
Waning Crescent, 16% visible
METAR KCPR 300353Z AUTO 03006KT 10SM CLR 19/12 A3010 RMK AO2 SLP125 T01890117

10-Day Weather Forecast

Almanac

Astronomy

Jul. 29, 2016 Rise Set
Actual Time
Civil Twilight
Nautical Twilight
Astronomical Twilight
Moon
Length of Visible Light
Length of Day
Tomorrow will be .
, % of the Moon is Illuminated

Today's Extremes

State Highs State Lows

Community

WunderPhotos

Upload Photos

1,928,506 photos uploaded!

WunderBlog® & News

Nearby

Air Quality

  Air Quality AQ Index Pollutant
Not available.

Snow Depth

Station Depth Elevation

Earthquake Activity

City Distance Mag. Time & Date
Minimum magnitude displayed is 2.5.

Coastal Water Temperatures

Place Temperature

Stations

Nearby Weather Stations

Station Location Temp. Windchill Dew Point Humidity Wind Precip. Elev Updated Type
                   

Watches & Warnings

There are currently no watches in effect.